Time;durP1;ratioP1;P1;durP2;ratioP2;P2;SDS_P1;SDS_P2;PMS_P1;PMS_P2;Temp;Humidity;BMP_temperature;BMP_pressure;BME280_temperature;BME280_humidity;BME280_pressure;Samples;Min_cycle;Max_cycle;Signal;HPM_P1;HPM_P2
2022/05/21 00:01:02;;;;;;;5.03;4.63;;;;;;;15.64;100.00;96444.72;5071841;28;20452;-76
2022/05/21 00:03:29;;;;;;;7.43;5.37;;;;;;;16.06;100.00;96495.28;5056344;28;20524;-76
2022/05/21 00:05:55;;;;;;;9.97;5.10;;;;;;;15.79;100.00;96438.47;5072034;28;20502;-76
2022/05/21 00:08:22;;;;;;;6.83;3.80;;;;;;;16.07;100.00;96461.38;5069231;28;20446;-76
2022/05/21 00:10:49;;;;;;;3.33;3.10;;;;;;;16.10;100.00;96476.66;5076628;28;20511;-76
2022/05/21 00:13:16;;;;;;;5.00;3.93;;;;;;;15.99;100.00;96483.72;5073620;28;20463;-76
2022/05/21 00:15:42;;;;;;;4.10;3.50;;;;;;;15.98;100.00;96466.94;5071143;28;20530;-76
2022/05/21 00:18:09;;;;;;;4.50;4.13;;;;;;;15.99;100.00;96497.84;5072015;28;20932;-76
2022/05/21 00:20:48;;;;;;;4.00;3.67;;;;;;;16.11;100.00;96467.53;5089862;28;20525;-76
2022/05/21 00:23:18;;;;;;;3.67;3.37;;;;;;;15.93;100.00;96472.59;5064399;28;20463;-76
2022/05/21 00:25:47;;;;;;;7.53;3.80;;;;;;;16.04;100.00;96494.88;5073432;28;20959;-76
2022/05/21 00:28:15;;;;;;;6.20;3.90;;;;;;;15.70;100.00;96466.50;5074556;28;20467;-76
2022/05/21 00:30:42;;;;;;;3.37;3.07;;;;;;;16.05;100.00;96506.31;5079887;28;20526;-76
2022/05/21 00:33:09;;;;;;;4.10;3.63;;;;;;;15.74;100.00;96502.75;5084178;28;20435;-76
2022/05/21 00:35:35;;;;;;;4.13;3.73;;;;;;;15.78;100.00;96502.81;5075236;28;20944;-76
2022/05/21 00:38:02;;;;;;;4.80;3.63;;;;;;;15.93;100.00;96513.38;5074194;28;20523;-76
2022/05/21 00:40:30;;;;;;;4.10;3.80;;;;;;;16.06;100.00;96519.28;5056960;28;20534;-76
2022/05/21 00:42:57;;;;;;;3.90;3.53;;;;;;;16.16;100.00;96523.25;5055965;28;20534;-76
2022/05/21 00:45:24;;;;;;;3.00;2.80;;;;;;;15.98;100.00;96490.19;5085364;28;20960;-76
2022/05/21 00:47:51;;;;;;;5.10;3.30;;;;;;;15.89;100.00;96511.75;5073589;28;20470;-76
2022/05/21 00:50:22;;;;;;;3.83;3.50;;;;;;;15.60;100.00;96471.28;5071727;28;20478;-76
2022/05/21 00:52:50;;;;;;;3.10;2.70;;;;;;;15.98;100.00;96532.84;5071323;28;20483;-76
2022/05/21 00:55:23;;;;;;;4.17;3.77;;;;;;;15.74;100.00;96544.63;5071514;28;20425;-76
2022/05/21 01:00:53;;;;;;;4.10;3.67;;;;;;;15.27;100.00;96524.31;5072753;28;20432;-76
2022/05/21 01:03:20;;;;;;;6.07;3.80;;;;;;;15.44;100.00;96529.22;5071367;28;20442;-76
2022/05/21 01:05:48;;;;;;;6.83;3.50;;;;;;;15.80;100.00;96545.91;5071764;28;20443;-76
2022/05/21 01:08:15;;;;;;;3.43;2.90;;;;;;;15.59;100.00;96523.06;5059883;28;20467;-76
2022/05/21 01:10:47;;;;;;;4.37;3.30;;;;;;;15.74;100.00;96544.63;5071134;28;20472;-76
2022/05/21 01:13:18;;;;;;;4.00;3.70;;;;;;;15.59;100.00;96532.91;5071266;28;20443;-76
2022/05/21 01:15:48;;;;;;;3.40;2.93;;;;;;;15.71;100.00;96554.13;5073484;28;20983;-76
2022/05/21 01:18:15;;;;;;;3.80;3.00;;;;;;;15.42;100.00;96523.47;5081524;28;20431;-75
2022/05/21 01:20:47;;;;;;;5.00;2.90;;;;;;;15.33;100.00;96578.84;5057766;28;20542;-75
2022/05/21 01:23:15;;;;;;;3.67;3.00;;;;;;;15.25;100.00;96583.28;5080763;28;20534;-75
2022/05/21 01:25:44;;;;;;;3.90;3.60;;;;;;;14.78;100.00;96575.44;5071131;28;20475;-75
2022/05/21 01:28:14;;;;;;;3.40;3.10;;;;;;;14.87;100.00;96601.88;5070563;28;20444;-74
2022/05/21 01:30:50;;;;;;;6.63;3.77;;;;;;;14.65;100.00;96593.38;5070783;28;20491;-75
2022/05/21 01:33:20;;;;;;;4.23;3.33;;;;;;;14.62;100.00;96591.41;5088295;28;20866;-75
2022/05/21 01:35:48;;;;;;;3.87;3.57;;;;;;;14.38;100.00;96599.56;5058390;28;20539;-75
2022/05/21 01:38:19;;;;;;;3.57;3.27;;;;;;;13.81;100.00;96532.47;5051646;28;20524;-75
2022/05/21 01:40:47;;;;;;;3.97;3.67;;;;;;;13.64;100.00;96546.06;5072622;28;20507;-75
2022/05/21 01:45:59;;;;;;;2.97;2.70;;;;;;;13.90;100.00;96630.66;5091217;28;20907;-75
2022/05/21 01:48:28;;;;;;;4.13;3.20;;;;;;;13.90;100.00;96622.69;5073245;28;20455;-75
2022/05/21 01:51:01;;;;;;;4.27;2.60;;;;;;;13.75;100.00;96644.66;5059466;28;20463;-75
2022/05/21 01:53:28;;;;;;;5.67;2.57;;;;;;;13.64;100.00;96651.59;5074657;28;20428;-75
2022/05/21 01:55:59;;;;;;;4.50;4.10;;;;;;;13.68;100.00;96629.31;5074945;28;20875;-75
2022/05/21 01:58:27;;;;;;;2.93;2.63;;;;;;;13.38;100.00;96639.47;5061110;28;20528;-75
2022/05/21 02:00:55;;;;;;;3.50;2.90;;;;;;;13.20;100.00;96599.13;5074183;28;20485;-75
2022/05/21 02:03:22;;;;;;;3.10;2.67;;;;;;;13.33;100.00;96615.78;5083033;28;20431;-75
2022/05/21 02:05:49;;;;;;;3.43;3.13;;;;;;;13.60;100.00;96646.16;5060794;28;20433;-74
2022/05/21 02:08:17;;;;;;;3.00;2.70;;;;;;;13.38;100.00;96646.69;5073909;28;20474;-75
2022/05/21 02:10:45;;;;;;;3.63;3.33;;;;;;;13.13;100.00;96616.72;5074238;28;20495;-75
2022/05/21 02:13:17;;;;;;;3.60;3.30;;;;;;;13.42;100.00;96650.97;5054233;28;20918;-75
2022/05/21 02:15:44;;;;;;;3.90;3.43;;;;;;;13.28;100.00;96613.38;5073084;28;20421;-75
2022/05/21 02:18:12;;;;;;;3.30;2.90;;;;;;;13.22;100.00;96612.84;5074227;28;20519;-75
2022/05/21 02:20:39;;;;;;;9.53;3.57;;;;;;;13.00;100.00;96614.06;5073719;28;20463;-75
2022/05/21 02:23:07;;;;;;;4.07;3.67;;;;;;;13.31;100.00;96663.16;5074159;28;20436;-75
2022/05/21 02:25:34;;;;;;;4.30;3.47;;;;;;;12.71;100.00;96604.50;5073799;28;20526;-75
2022/05/21 02:28:01;;;;;;;4.03;3.67;;;;;;;13.25;100.00;96661.88;5074134;28;20555;-75
2022/05/21 02:30:28;;;;;;;3.90;3.60;;;;;;;13.05;100.00;96646.81;5090743;28;20962;-75
2022/05/21 02:32:54;;;;;;;3.23;2.93;;;;;;;12.79;100.00;96655.88;5075854;28;20464;-75
2022/05/21 02:35:21;;;;;;;3.60;3.20;;;;;;;12.81;100.00;96635.09;5093758;28;20429;-75
2022/05/21 02:40:33;;;;;;;5.40;3.37;;;;;;;12.94;100.00;96652.56;5073293;28;20532;-75
2022/05/21 02:43:00;;;;;;;5.13;4.30;;;;;;;12.88;100.00;96653.91;5087395;28;20468;-75
2022/05/21 02:45:28;;;;;;;3.97;3.67;;;;;;;12.87;100.00;96686.84;5077036;28;20835;-75
2022/05/21 02:47:56;;;;;;;5.50;3.90;;;;;;;12.90;100.00;96678.22;5090241;28;20514;-75
2022/05/21 02:50:27;;;;;;;5.90;4.10;;;;;;;12.63;100.00;96682.31;5076615;28;20531;-75
2022/05/21 02:52:54;;;;;;;4.30;4.00;;;;;;;12.77;100.00;96689.94;5059662;28;20858;-75
2022/05/21 02:55:21;;;;;;;4.90;4.50;;;;;;;12.21;100.00;96672.94;5076932;28;20429;-76
2022/05/21 02:57:47;;;;;;;4.30;4.00;;;;;;;12.13;100.00;96683.28;5073732;28;20452;-75
2022/05/21 03:00:21;;;;;;;6.90;3.93;;;;;;;12.50;100.00;96683.38;5066639;28;21041;-75
2022/05/21 03:02:48;;;;;;;10.23;4.40;;;;;;;12.35;100.00;96684.78;5075182;28;20453;-75
2022/05/21 03:05:16;;;;;;;5.03;4.63;;;;;;;12.58;100.00;96690.47;5073726;28;20451;-75
2022/05/21 03:07:46;;;;;;;5.20;4.50;;;;;;;12.39;100.00;96677.72;5090156;28;20792;-75
2022/05/21 03:10:21;;;;;;;5.17;4.77;;;;;;;12.43;100.00;96675.22;5074527;28;20827;-75
2022/05/21 03:12:48;;;;;;;5.60;4.53;;;;;;;12.55;100.00;96695.66;5091681;28;20978;-75
2022/05/21 03:15:15;;;;;;;5.60;5.20;;;;;;;12.49;100.00;96673.88;5075455;28;20428;-75
2022/05/21 03:17:43;;;;;;;5.47;4.97;;;;;;;12.47;100.00;96670.00;5095223;28;20542;-75
2022/05/21 03:20:13;;;;;;;4.80;4.40;;;;;;;12.39;100.00;96667.13;5081548;28;20531;-75
2022/05/21 03:22:41;;;;;;;4.97;4.43;;;;;;;12.38;100.00;96688.66;5073044;28;20465;-75
2022/05/21 03:25:09;;;;;;;5.27;4.20;;;;;;;12.37;100.00;96722.38;5088067;28;20463;-75
2022/05/21 03:27:36;;;;;;;4.40;4.00;;;;;;;12.06;100.00;96698.19;5056230;28;20465;-75
2022/05/21 03:30:05;;;;;;;4.70;4.30;;;;;;;12.40;100.00;96715.63;5073260;28;20452;-75
2022/05/21 03:32:32;;;;;;;4.70;4.30;;;;;;;12.35;100.00;96713.19;5076746;28;20444;-75
2022/05/21 03:34:59;;;;;;;5.00;4.60;;;;;;;12.06;100.00;96679.63;5078820;28;20430;-75
2022/05/21 03:37:26;;;;;;;5.03;4.63;;;;;;;12.03;100.00;96686.38;5073018;28;21001;-75
2022/05/21 03:39:52;;;;;;;4.60;4.20;;;;;;;12.06;100.00;96687.59;5088411;28;20441;-75
2022/05/21 03:42:19;;;;;;;4.97;4.57;;;;;;;12.48;100.00;96737.88;5085261;28;20539;-75
2022/05/21 03:44:46;;;;;;;4.77;4.40;;;;;;;12.08;100.00;96711.88;5090383;28;20444;-75
2022/05/21 03:47:13;;;;;;;4.90;4.50;;;;;;;12.04;100.00;96750.75;5084984;28;20834;-75
2022/05/21 03:49:40;;;;;;;5.20;4.80;;;;;;;12.32;100.00;96743.78;5072135;28;20531;-75
2022/05/21 03:52:07;;;;;;;5.43;4.60;;;;;;;11.94;100.00;96717.47;5073631;28;20544;-76
2022/05/21 03:54:34;;;;;;;4.90;4.43;;;;;;;12.04;100.00;96732.97;5071819;28;20510;-75
2022/05/21 03:57:02;;;;;;;7.23;5.27;;;;;;;12.27;100.00;96746.63;5072298;28;20431;-75
2022/05/21 03:59:28;;;;;;;4.97;4.50;;;;;;;12.40;100.00;96766.78;5088734;28;20540;-75
2022/05/21 04:01:55;;;;;;;4.70;4.40;;;;;;;12.10;100.00;96721.06;5071562;28;20547;-75
2022/05/21 04:04:22;;;;;;;5.37;4.80;;;;;;;11.82;100.00;96704.94;5072935;28;20429;-75
2022/05/21 04:06:48;;;;;;;4.30;3.90;;;;;;;11.79;100.00;96744.56;5071639;28;20496;-75
2022/05/21 04:09:15;;;;;;;9.20;4.90;;;;;;;11.87;100.00;96727.81;5071472;28;20582;-75
2022/05/21 04:11:43;;;;;;;5.03;4.63;;;;;;;11.95;100.00;96744.75;5054188;28;20468;-75
2022/05/21 04:14:12;;;;;;;4.50;4.10;;;;;;;12.08;100.00;96738.41;5071577;28;20899;-75
2022/05/21 04:16:44;;;;;;;4.80;4.40;;;;;;;11.96;100.00;96752.38;5054994;28;20470;-75
2022/05/21 04:19:11;;;;;;;5.63;5.07;;;;;;;12.16;100.00;96750.03;5071337;28;20494;-75
2022/05/21 04:21:38;;;;;;;5.37;4.97;;;;;;;12.12;100.00;96740.06;5089004;28;20555;-75
2022/05/21 04:24:05;;;;;;;4.63;4.23;;;;;;;12.19;100.00;96744.84;5075733;28;20430;-75
2022/05/21 04:26:32;;;;;;;4.60;4.10;;;;;;;12.33;100.00;96733.97;5091830;28;20955;-75
2022/05/21 04:28:59;;;;;;;5.20;4.70;;;;;;;12.52;100.00;96763.41;5091406;28;20519;-75
2022/05/21 04:31:25;;;;;;;4.67;4.27;;;;;;;12.52;100.00;96773.22;5080562;28;20440;-75
2022/05/21 04:33:58;;;;;;;4.77;4.37;;;;;;;12.16;100.00;96758.75;5071743;28;20439;-75
2022/05/21 04:36:25;;;;;;;5.20;4.73;;;;;;;12.08;100.00;96759.59;5071613;28;20535;-75
2022/05/21 04:38:53;;;;;;;4.27;3.87;;;;;;;12.01;100.00;96756.69;5071746;28;20500;-75
2022/05/21 04:41:21;;;;;;;4.60;4.20;;;;;;;12.20;100.00;96788.81;5071408;28;20538;-75
2022/05/21 04:43:48;;;;;;;4.93;4.60;;;;;;;12.10;100.00;96792.63;5081685;28;20470;-75
2022/05/21 04:46:15;;;;;;;4.73;4.23;;;;;;;11.87;100.00;96798.56;5074670;28;20534;-75
2022/05/21 04:48:44;;;;;;;5.30;4.90;;;;;;;11.93;100.00;96773.44;5074125;28;20463;-75
2022/05/21 04:51:29;;;;;;;4.80;4.30;;;;;;;11.71;100.00;96763.91;5088099;28;20547;-75
2022/05/21 04:53:56;;;;;;;5.47;4.90;;;;;;;11.67;100.00;96792.91;5070839;28;20518;-75
2022/05/21 04:56:23;;;;;;;4.80;4.40;;;;;;;11.84;100.00;96792.03;5090651;28;20526;-75
2022/05/21 04:59:04;;;;;;;5.17;4.60;;;;;;;11.61;100.00;96788.09;5091041;28;20777;-75
2022/05/21 05:01:30;;;;;;;4.17;3.87;;;;;;;11.56;100.00;96789.06;5079317;28;20453;-75
2022/05/21 05:03:57;;;;;;;4.97;4.30;;;;;;;11.71;100.00;96816.88;5083042;28;20471;-75
2022/05/21 05:06:26;;;;;;;5.13;4.63;;;;;;;11.40;100.00;96782.78;5072848;28;20429;-75
2022/05/21 05:08:52;;;;;;;4.97;4.37;;;;;;;11.60;100.00;96800.56;5070372;28;20554;-75
2022/05/21 05:11:19;;;;;;;4.17;3.77;;;;;;;11.76;100.00;96809.53;5076901;28;20463;-75
2022/05/21 05:13:46;;;;;;;4.53;4.13;;;;;;;11.99;100.00;96803.94;5092049;28;20404;-75
2022/05/21 05:16:12;;;;;;;4.93;4.53;;;;;;;11.95;100.00;96808.34;5070570;28;20439;-75
2022/05/21 05:18:39;;;;;;;5.03;4.63;;;;;;;12.19;100.00;96818.31;5086982;28;20778;-75
2022/05/21 05:21:06;;;;;;;4.70;4.30;;;;;;;11.84;100.00;96811.38;5070101;28;20546;-75
2022/05/21 05:23:32;;;;;;;3.90;3.60;;;;;;;12.05;100.00;96803.44;5070328;28;20440;-75
2022/05/21 05:25:59;;;;;;;5.00;4.60;;;;;;;11.99;100.00;96810.00;5094301;28;20515;-75
2022/05/21 05:28:28;;;;;;;4.40;4.10;;;;;;;12.24;100.00;96834.78;5060320;28;20457;-75
2022/05/21 05:30:55;;;;;;;5.70;4.27;;;;;;;12.31;100.00;96837.69;5077840;28;20444;-75
2022/05/21 05:33:23;;;;;;;5.17;4.77;;;;;;;11.96;100.00;96786.81;5057968;28;20471;-75
2022/05/21 05:35:54;;;;;;;4.40;4.10;;;;;;;11.89;100.00;96741.53;5086547;28;20489;-75
2022/05/21 05:38:22;;;;;;;3.63;3.33;;;;;;;12.53;100.00;96838.44;5073862;28;20448;-75
2022/05/21 05:40:51;;;;;;;7.03;3.27;;;;;;;11.87;100.00;96799.34;5073801;28;20514;-75
2022/05/21 05:43:20;;;;;;;4.83;4.43;;;;;;;12.29;100.00;96845.22;5075879;28;20860;-75
2022/05/21 05:45:58;;;;;;;4.27;3.97;;;;;;;12.39;100.00;96794.41;5076775;28;20432;-75
2022/05/21 05:48:26;;;;;;;5.10;4.60;;;;;;;12.58;100.00;96838.25;5093439;28;20460;-75
2022/05/21 05:50:57;;;;;;;5.00;4.70;;;;;;;12.13;100.00;96772.66;5075875;28;20459;-75
2022/05/21 05:53:25;;;;;;;4.33;3.93;;;;;;;12.95;100.00;96845.22;5093144;28;20502;-75
2022/05/21 05:55:52;;;;;;;4.00;3.70;;;;;;;12.50;100.00;96844.41;5088189;28;20522;-75
2022/05/21 06:01:06;;;;;;;3.00;2.80;;;;;;;12.82;100.00;96856.13;5092306;28;20855;-75
2022/05/21 06:03:34;;;;;;;3.47;3.20;;;;;;;13.05;100.00;96867.91;5098232;28;20426;-75
2022/05/21 06:06:02;;;;;;;5.30;3.37;;;;;;;12.54;100.00;96832.03;5083216;28;20960;-75
2022/05/21 06:08:28;;;;;;;10.23;4.23;;;;;;;12.56;100.00;96851.84;5077960;28;20554;-73
2022/05/21 06:10:55;;;;;;;3.40;3.10;;;;;;;12.81;100.00;96839.41;5076553;28;20527;-73
2022/05/21 06:13:21;;;;;;;4.93;2.73;;;;;;;12.82;100.00;96841.00;5072997;28;20445;-73
2022/05/21 06:15:48;;;;;;;4.60;3.67;;;;;;;13.08;100.00;96877.88;5074092;28;20431;-73
2022/05/21 06:18:22;;;;;;;4.20;3.40;;;;;;;12.54;100.00;96871.81;5074196;28;20428;-73
2022/05/21 06:20:50;;;;;;;4.13;3.07;;;;;;;12.48;100.00;96883.75;5074186;28;20416;-73
2022/05/21 06:23:20;;;;;;;4.13;3.83;;;;;;;13.08;100.00;96885.84;5072546;28;20440;-73
2022/05/21 06:25:47;;;;;;;3.97;2.93;;;;;;;13.10;100.00;96886.31;5077077;28;20431;-73
2022/05/21 06:28:14;;;;;;;3.53;3.23;;;;;;;12.92;100.00;96868.97;5061530;28;20457;-73
2022/05/21 06:30:42;;;;;;;2.83;2.30;;;;;;;13.08;100.00;96888.50;5070414;28;20471;-73
2022/05/21 06:33:23;;;;;;;4.13;3.80;;;;;;;13.42;100.00;96887.38;5072341;28;20470;-73
2022/05/21 06:36:01;;;;;;;3.53;3.23;;;;;;;13.35;100.00;96875.75;5058958;28;20472;-73
2022/05/21 06:38:28;;;;;;;3.20;3.00;;;;;;;13.61;100.00;96866.34;5073798;28;20512;-73
2022/05/21 06:40:55;;;;;;;6.60;3.80;;;;;;;13.32;100.00;96880.59;5081081;28;20539;-73
2022/05/21 06:43:22;;;;;;;5.30;3.10;;;;;;;13.95;100.00;96896.25;5077898;28;20481;-73
2022/05/21 06:45:49;;;;;;;3.03;2.83;;;;;;;13.69;100.00;96879.88;5072271;28;20434;-73
2022/05/21 06:48:16;;;;;;;3.10;2.60;;;;;;;13.81;100.00;96864.69;5074866;28;20461;-73
2022/05/21 06:50:43;;;;;;;2.90;2.70;;;;;;;13.45;100.00;96862.03;5092289;28;20467;-73
2022/05/21 06:53:10;;;;;;;4.73;3.67;;;;;;;13.99;100.00;96888.38;5092202;28;20443;-73
2022/05/21 06:55:38;;;;;;;8.90;3.03;;;;;;;13.69;100.00;96871.91;5092240;28;20431;-73
2022/05/21 06:58:05;;;;;;;3.30;2.77;;;;;;;14.26;100.00;96905.53;5075273;28;20448;-73
2022/05/21 07:00:33;;;;;;;3.00;2.80;;;;;;;14.21;100.00;96871.97;5072186;28;20518;-73
2022/05/21 07:02:59;;;;;;;2.90;2.70;;;;;;;14.25;100.00;96867.50;5073055;28;20871;-73
2022/05/21 07:08:24;;;;;;;3.03;2.77;;;;;;;14.76;100.00;96889.13;5077613;28;20798;-73
2022/05/21 07:10:52;;;;;;;2.60;2.40;;;;;;;14.57;100.00;96911.03;5069306;28;20524;-73
2022/05/21 07:13:21;;;;;;;2.43;2.23;;;;;;;14.24;100.00;96908.53;5070237;28;20526;-74
2022/05/21 07:15:49;;;;;;;2.50;2.30;;;;;;;14.05;100.00;96895.81;5059138;28;20437;-73
2022/05/21 07:18:20;;;;;;;2.20;2.00;;;;;;;14.55;100.00;96893.84;5055370;28;20444;-73
2022/05/21 07:20:47;;;;;;;2.90;2.70;;;;;;;14.76;100.00;96895.22;5071638;28;21005;-73
2022/05/21 07:23:13;;;;;;;4.10;2.27;;;;;;;15.05;100.00;96911.97;5072082;28;20855;-73
2022/05/21 07:25:41;;;;;;;2.60;2.23;;;;;;;14.61;100.00;96892.50;5089249;28;20441;-74
2022/05/21 07:28:08;;;;;;;3.00;2.70;;;;;;;14.28;100.00;96911.28;5092255;28;20546;-73
2022/05/21 07:30:37;;;;;;;2.60;2.37;;;;;;;14.62;100.00;96916.13;5088786;28;20428;-73
2022/05/21 07:33:04;;;;;;;2.00;1.80;;;;;;;14.29;100.00;96915.50;5073137;28;20448;-73
2022/05/21 07:35:31;;;;;;;2.93;2.60;;;;;;;15.08;100.00;96908.59;5072805;28;20460;-73
2022/05/21 07:37:58;;;;;;;3.83;2.57;;;;;;;14.91;100.00;96887.63;5071558;28;20448;-73
2022/05/21 07:40:25;;;;;;;3.10;2.60;;;;;;;15.42;100.00;96917.09;5072724;28;20479;-73
2022/05/21 07:42:52;;;;;;;2.63;2.43;;;;;;;15.76;100.00;96907.66;5071476;28;20484;-73
2022/05/21 07:45:20;;;;;;;5.03;2.40;;;;;;;15.87;100.00;96914.78;5090410;28;20447;-73
2022/05/21 07:47:49;;;;;;;4.13;2.50;;;;;;;15.79;100.00;96915.75;5078296;28;20534;-73
2022/05/21 07:50:18;;;;;;;2.80;2.60;;;;;;;14.72;100.00;96891.69;5072693;28;20970;-74
2022/05/21 07:52:44;;;;;;;5.33;2.93;;;;;;;15.40;100.00;96904.13;5084579;28;20453;-73
2022/05/21 07:55:13;;;;;;;3.20;2.80;;;;;;;15.70;100.00;96915.16;5086461;28;20429;-73
2022/05/21 07:57:40;;;;;;;3.73;3.43;;;;;;;15.61;100.00;96898.56;5071097;28;20448;-73
2022/05/21 08:00:08;;;;;;;2.60;2.30;;;;;;;15.51;100.00;96921.16;5071745;28;20505;-73
2022/05/21 08:02:41;;;;;;;2.43;2.27;;;;;;;15.86;100.00;96894.59;5086556;28;20970;-73
2022/05/21 08:05:08;;;;;;;3.47;3.13;;;;;;;15.65;99.54;96894.88;5072488;28;20429;-73
2022/05/21 08:07:35;;;;;;;6.17;2.27;;;;;;;15.84;96.71;96915.50;5075633;28;20463;-73
2022/05/21 08:10:05;;;;;;;2.10;1.90;;;;;;;15.54;93.23;96920.47;5080744;28;20436;-74
2022/05/21 08:12:32;;;;;;;2.87;1.90;;;;;;;15.48;95.81;96924.47;5075735;28;20554;-73
2022/05/21 08:14:58;;;;;;;2.20;2.00;;;;;;;15.18;93.55;96859.41;5071083;28;20439;-73
2022/05/21 08:17:26;;;;;;;2.80;2.07;;;;;;;14.76;97.32;96924.50;5087551;28;20462;-73
2022/05/21 08:19:53;;;;;;;2.60;2.37;;;;;;;14.80;99.58;96892.66;5091335;28;20500;-73
2022/05/21 08:27:56;;;;;;;1.97;1.87;;;;;;;16.39;95.11;96913.66;5070038;28;20431;-76
2022/05/21 08:30:24;;;;;;;2.80;2.50;;;;;;;15.83;89.04;96879.28;5078094;28;20439;-76
2022/05/21 08:32:58;;;;;;;2.63;2.40;;;;;;;15.03;94.78;96852.94;5091735;28;20978;-75
2022/05/21 08:35:25;;;;;;;3.53;3.23;;;;;;;15.28;100.00;96906.84;5075311;28;20426;-76
2022/05/21 08:37:53;;;;;;;2.50;2.30;;;;;;;16.51;93.56;96913.53;5087543;28;20477;-76
2022/05/21 08:40:20;;;;;;;2.60;2.23;;;;;;;16.89;87.58;96906.69;5071376;28;20447;-77
2022/05/21 08:42:58;;;;;;;2.00;1.80;;;;;;;16.81;88.88;96900.44;5081586;28;20890;-76
2022/05/21 08:45:43;;;;;;;2.20;1.97;;;;;;;17.14;88.74;96888.47;5060452;28;20820;-76
2022/05/21 08:48:11;;;;;;;2.43;2.23;;;;;;;16.82;87.06;96869.16;5071949;28;20538;-76
2022/05/21 08:50:47;;;;;;;2.00;1.90;;;;;;;15.94;88.22;96882.97;5077189;28;20423;-75
2022/05/21 08:53:18;;;;;;;2.73;1.83;;;;;;;16.71;91.57;96916.28;5077060;28;20469;-77
2022/05/21 08:55:47;;;;;;;2.17;1.80;;;;;;;17.02;89.53;96918.00;5097308;28;20452;-77
2022/05/21 08:58:26;;;;;;;1.93;1.47;;;;;;;16.63;83.29;96882.50;5078149;28;20877;-77
2022/05/21 09:00:55;;;;;;;1.90;1.70;;;;;;;16.98;80.90;96906.50;5071757;28;20812;-75
2022/05/21 09:03:24;;;;;;;2.00;1.90;;;;;;;16.76;82.21;96891.94;5069916;28;20497;-75
2022/05/21 09:06:18;;;;;;;1.93;1.83;;;;;;;16.58;80.82;96904.16;5072357;28;20429;-75
2022/05/21 09:09:08;;;;;;;3.15;1.80;;;;;;;15.94;85.09;96874.97;5090714;28;20506;-77
2022/05/21 09:11:47;;;;;;;7.07;2.30;;;;;;;16.11;90.20;96875.69;5089992;28;20315;-77
2022/05/21 09:14:21;;;;;;;2.47;1.85;;;;;;;16.30;91.03;96899.00;5073317;28;20909;-77
2022/05/21 09:16:55;;;;;;;4.73;1.50;;;;;;;16.33;90.24;96891.06;5071982;28;20211;-77
2022/05/21 09:19:40;;;;;;;2.90;2.00;;;;;;;15.66;92.40;96869.75;5087206;28;20968;-77
2022/05/21 09:22:13;;;;;;;1.70;1.60;;;;;;;16.02;89.96;96904.44;5083563;28;20470;-77
2022/05/21 09:25:01;;;;;;;1.80;1.70;;;;;;;16.00;86.39;96904.03;5083999;28;20638;-76
2022/05/21 09:27:28;;;;;;;1.70;1.60;;;;;;;16.32;88.63;96899.41;5079993;28;20497;-76
2022/05/21 09:30:23;;;;;;;7.40;6.60;;;;;;;16.37;83.12;96891.91;5057609;28;20462;-76
2022/05/21 09:32:53;;;;;;;6.20;3.17;;;;;;;16.51;86.27;96896.75;5061024;28;20879;-79
2022/05/21 09:35:21;;;;;;;3.90;2.17;;;;;;;16.58;83.15;96888.91;5088758;28;20471;-78
2022/05/21 09:37:48;;;;;;;2.83;2.03;;;;;;;16.40;82.33;96832.47;5074018;28;20848;-79
2022/05/21 09:40:39;;;;;;;3.17;1.67;;;;;;;16.09;82.04;96841.38;5075504;28;20432;-80
2022/05/21 09:46:18;;;;;;;4.90;2.63;;;;;;;16.49;80.99;96883.00;5095865;28;20436;-79
2022/05/21 09:48:49;;;;;;;4.10;1.93;;;;;;;16.77;81.66;96894.25;5063248;28;20448;-79
2022/05/21 09:51:35;;;;;;;2.50;1.63;;;;;;;16.66;82.66;96861.19;5080309;28;20470;-79
2022/05/21 09:54:21;;;;;;;1.73;1.53;;;;;;;16.40;80.17;96843.16;5086555;28;20454;-80
2022/05/21 09:56:52;;;;;;;2.33;1.60;;;;;;;16.69;80.39;96873.09;5077077;28;20433;-79
2022/05/21 09:59:22;;;;;;;23.67;21.27;;;;;;;17.16;80.46;96888.09;5077322;28;20413;-79
2022/05/21 10:01:56;;;;;;;3.47;3.17;;;;;;;17.72;80.36;96878.38;5088663;28;20494;-80
2022/05/21 10:04:40;;;;;;;3.03;1.53;;;;;;;17.70;81.34;96890.56;5095495;28;20428;-77
2022/05/21 10:10:58;;;;;;;2.50;1.80;;;;;;;17.58;77.95;96904.09;5069148;28;20437;-79
2022/05/21 10:12:58;;;;;;;2.93;1.20;;;;;;;16.76;79.51;96862.56;5079585;28;20923;-79
2022/05/21 10:15:29;;;;;;;1.67;1.57;;;;;;;16.87;78.87;96898.28;5092896;28;20439;-79
2022/05/21 10:18:05;;;;;;;1.60;1.50;;;;;;;16.28;80.59;96883.31;5076274;28;20440;-79
2022/05/21 10:20:39;;;;;;;1.83;1.60;;;;;;;16.27;74.63;96863.06;5096406;28;20424;-78
2022/05/21 10:23:26;;;;;;;3.00;1.60;;;;;;;16.04;79.26;96817.66;5079544;28;20960;-79
2022/05/21 10:26:06;;;;;;;1.83;1.47;;;;;;;16.92;77.11;96897.97;5079462;28;21012;-79
2022/05/21 10:29:01;;;;;;;1.57;1.43;;;;;;;17.06;75.18;96897.47;5064208;28;20897;-79
2022/05/21 10:31:37;;;;;;;1.90;1.70;;;;;;;16.86;73.97;96894.06;5083538;28;20874;-73
2022/05/21 10:34:24;;;;;;;3.37;1.60;;;;;;;16.67;75.17;96852.09;5080140;28;20427;-74
2022/05/21 10:36:58;;;;;;;2.67;1.53;;;;;;;16.50;75.30;96871.97;5080888;28;20431;-74
2022/05/21 10:39:43;;;;;;;2.30;1.90;;;;;;;17.11;77.33;96900.63;5076410;28;20423;-74
2022/05/21 10:42:29;;;;;;;1.80;1.50;;;;;;;17.17;75.84;96895.00;5079518;28;20459;-77
2022/05/21 10:45:15;;;;;;;2.07;1.30;;;;;;;17.47;73.62;96903.16;5061609;28;20440;-77
2022/05/21 10:48:23;;;;;;;6.73;1.47;;;;;;;16.95;72.89;96889.25;5084698;28;20524;-77
2022/05/21 10:51:16;;;;;;;1.70;1.40;;;;;;;16.62;73.90;96870.28;5063311;28;20440;-77
2022/05/21 10:53:54;;;;;;;1.60;1.50;;;;;;;17.00;74.87;96888.97;5072845;28;20443;-77
2022/05/21 10:56:41;;;;;;;1.33;1.20;;;;;;;16.62;74.69;96886.28;5087292;28;20443;-76
2022/05/21 10:59:25;;;;;;;2.20;1.47;;;;;;;16.63;75.96;96877.16;5087066;28;20411;-77
2022/05/21 11:01:51;;;;;;;1.70;1.60;;;;;;;16.83;76.17;96889.44;5071449;28;20521;-77
2022/05/21 11:04:49;;;;;;;2.20;1.57;;;;;;;17.38;73.23;96874.00;5080906;28;20519;-77
2022/05/21 11:07:41;;;;;;;2.70;1.53;;;;;;;17.06;74.13;96876.09;5067575;28;20526;-77
2022/05/21 11:10:11;;;;;;;1.73;1.63;;;;;;;17.16;76.25;96878.19;5061761;28;20551;-77
2022/05/21 11:12:47;;;;;;;2.47;1.60;;;;;;;17.08;78.78;96879.19;5073332;28;20568;-77
2022/05/21 11:15:39;;;;;;;6.20;1.67;;;;;;;16.73;75.34;96877.41;5074402;28;20475;-78
2022/05/21 11:18:21;;;;;;;1.80;1.70;;;;;;;16.15;77.48;96879.22;5080024;28;20958;-79
2022/05/21 11:21:28;;;;;;;2.90;1.70;;;;;;;16.78;76.81;96860.31;5092218;28;20799;-79
2022/05/21 11:24:01;;;;;;;1.73;1.63;;;;;;;18.00;76.30;96882.63;5060090;28;20446;-78
2022/05/21 11:26:28;;;;;;;2.30;2.10;;;;;;;18.65;72.79;96873.56;5075675;28;20948;-79
2022/05/21 11:29:24;;;;;;;1.77;1.60;;;;;;;17.76;73.80;96883.00;5075184;28;20556;-79
2022/05/21 11:37:56;;;;;;;1.80;1.37;;;;;;;18.04;69.66;96845.22;5085763;28;20470;-79
2022/05/21 11:40:50;;;;;;;1.57;1.47;;;;;;;18.31;69.19;96882.31;5093014;28;20487;-78
2022/05/21 11:43:21;;;;;;;1.70;1.60;;;;;;;17.79;70.16;96848.31;5080081;28;20452;-76
2022/05/21 11:46:11;;;;;;;1.73;1.57;;;;;;;17.59;69.90;96870.88;5084527;28;20428;-76
2022/05/21 11:48:38;;;;;;;1.80;1.70;;;;;;;17.69;73.70;96843.56;5071340;28;20784;-76
2022/05/21 11:51:24;;;;;;;2.60;1.50;;;;;;;16.56;74.55;96808.38;5084576;28;20466;-78
2022/05/21 11:53:51;;;;;;;4.03;1.73;;;;;;;16.27;73.80;96837.16;5062561;28;20421;-79
2022/05/21 11:56:18;;;;;;;1.50;1.40;;;;;;;16.65;74.26;96832.19;5075675;28;20439;-79
2022/05/21 11:59:00;;;;;;;1.90;1.80;;;;;;;17.24;73.19;96863.84;5054334;28;20863;-79
2022/05/21 12:01:36;;;;;;;1.67;1.50;;;;;;;17.71;71.35;96865.38;5075033;28;20492;-80
2022/05/21 12:04:02;;;;;;;1.80;1.60;;;;;;;17.24;69.85;96814.94;5075736;28;20466;-81
2022/05/21 12:06:32;;;;;;;4.83;1.80;;;;;;;17.91;68.12;96871.41;5076966;28;20436;-82
2022/05/21 12:09:22;;;;;;;1.60;1.50;;;;;;;18.66;67.23;96848.31;5083233;28;20462;-80
2022/05/21 12:11:50;;;;;;;2.57;1.70;;;;;;;17.68;66.21;96794.66;5091295;28;21056;-78
2022/05/21 12:14:27;;;;;;;1.50;1.40;;;;;;;17.94;68.72;96878.72;5091142;28;20443;-78
2022/05/21 12:16:57;;;;;;;4.53;1.53;;;;;;;17.60;68.36;96835.75;5075089;28;20431;-79